Latest Weather Observations for Fawkner Beacon

IDV60901

Issued at 6:01 pm EST Sunday 26 June 2016 (issued every 10 minutes, with the page automatically refreshed every 10 minutes)

About weather observations | Map of Melbourne area stations | Latest observations for Melbourne area | Other Formats
Station Details ID: 086376 Name: FAWKNER BEACON Lat: -37.91 Lon: 144.93 Height: 17.0 m
Data from the previous 72 hours. | See also: Recent months for locations in Victoria
Date/Time
EST
Temp
°C
App
Temp
°C
Dew
Point
°C
Rel
Hum
%
Delta-T
°C
Wind Press
QNH
hPa
Press
MSL
hPa
Rain since
9am
mm
Dir  Spd
km/h
Gust
km/h
Spd
kts
Gust
kts
26/06:00pm - - - - - N 30 35 16 19 - - -
26/05:30pm - - - - - NNW 30 35 16 19 - - -
26/05:00pm - - - - - NNW 28 33 15 18 - - -
26/04:30pm - - - - - NW 28 32 15 17 - - -
26/04:00pm - - - - - NNW 28 33 15 18 - - -
26/03:30pm - - - - - NNW 32 39 17 21 - - -
26/03:00pm - - - - - NNW 30 39 16 21 - - -
26/02:30pm - - - - - N 30 33 16 18 - - -
26/02:00pm - - - - - N 30 35 16 19 - - -
26/01:30pm - - - - - N 32 39 17 21 - - -
26/01:00pm - - - - - NNW 28 35 15 19 - - -
26/12:30pm - - - - - N 28 35 15 19 - - -
26/12:00pm - - - - - N 30 33 16 18 - - -
26/11:30am - - - - - N 26 33 14 18 - - -
26/11:00am - - - - - N 24 30 13 16 - - -
26/10:30am - - - - - N 24 28 13 15 - - -
26/10:00am - - - - - N 26 30 14 16 - - -
26/09:30am - - - - - N 26 32 14 17 - - -
26/09:00am - - - - - N 26 32 14 17 - - -
26/08:30am - - - - - N 22 26 12 14 - - -
26/08:00am - - - - - N 28 30 15 16 - - -
26/07:30am - - - - - N 24 26 13 14 - - -
26/07:00am - - - - - N 22 26 12 14 - - -
26/06:30am - - - - - NNE 17 24 9 13 - - -
26/06:00am - - - - - N 20 24 11 13 - - -
26/05:30am - - - - - N 22 24 12 13 - - -
26/05:00am - - - - - N 20 24 11 13 - - -
26/04:30am - - - - - NNE 22 24 12 13 - - -
26/04:00am - - - - - N 17 20 9 11 - - -
26/03:30am - - - - - N 15 20 8 11 - - -
26/03:00am - - - - - N 19 22 10 12 - - -
26/02:30am - - - - - N 20 24 11 13 - - -
26/02:00am - - - - - N 19 22 10 12 - - -
26/01:30am - - - - - N 17 20 9 11 - - -
26/01:00am - - - - - N 15 17 8 9 - - -
26/12:30am - - - - - N 17 20 9 11 - - -
26/12:00am - - - - - N 17 20 9 11 - - -
 
Date/Time
EST
Temp
°C
App
Temp
°C
Dew
Point
°C
Rel
Hum
%
Delta-T
°C
Wind Press
QNH
hPa
Press
MSL
hPa
Rain since
9am
mm
Dir  Spd
km/h
Gust
km/h
Spd
kts
Gust
kts
25/11:30pm - - - - - N 19 22 10 12 - - -
25/11:00pm - - - - - N 15 22 8 12 - - -
25/10:30pm - - - - - NNW 17 22 9 12 - - -
25/10:00pm - - - - - N 15 17 8 9 - - -
25/09:30pm - - - - - N 15 20 8 11 - - -
25/09:00pm - - - - - N 15 17 8 9 - - -
25/08:30pm - - - - - N 13 17 7 9 - - -
25/08:00pm - - - - - N 13 13 7 7 - - -
25/07:30pm - - - - - N 11 13 6 7 - - -
25/07:00pm - - - - - NW 7 9 4 5 - - -
25/06:30pm - - - - - WNW 9 11 5 6 - - -
25/06:00pm - - - - - WNW 9 11 5 6 - - -
25/05:30pm - - - - - W 9 11 5 6 - - -
25/05:00pm - - - - - WSW 9 13 5 7 - - -
25/04:30pm - - - - - WSW 13 17 7 9 - - -
25/04:00pm - - - - - WSW 19 22 10 12 - - -
25/03:30pm - - - - - WSW 22 24 12 13 - - -
25/03:00pm - - - - - WSW 17 22 9 12 - - -
25/02:30pm - - - - - W 13 17 7 9 - - -
25/02:00pm - - - - - W 15 17 8 9 - - -
25/01:30pm - - - - - NW 6 9 3 5 - - -
25/01:00pm - - - - - NW 6 7 3 4 - - -
25/12:30pm - - - - - NW 7 9 4 5 - - -
25/12:00pm - - - - - NW 7 11 4 6 - - -
25/11:30am - - - - - NW 11 13 6 7 - - -
25/11:00am - - - - - WNW 13 15 7 8 - - -
25/10:30am - - - - - WNW 9 13 5 7 - - -
25/10:00am - - - - - NW 11 17 6 9 - - -
25/09:30am - - - - - WNW 15 22 8 12 - - -
25/09:00am - - - - - NW 15 20 8 11 - - -
25/08:30am - - - - - WNW 22 28 12 15 - - -
25/08:00am - - - - - W 22 30 12 16 - - -
25/07:30am - - - - - W 19 24 10 13 - - -
25/07:00am - - - - - W 24 30 13 16 - - -
25/06:30am - - - - - W 22 26 12 14 - - -
25/06:00am - - - - - WSW 26 33 14 18 - - -
25/05:30am - - - - - WSW 28 33 15 18 - - -
25/05:00am - - - - - W 20 30 11 16 - - -
25/04:30am - - - - - W 28 35 15 19 - - -
25/04:00am - - - - - WSW 32 41 17 22 - - -
25/03:30am - - - - - WSW 28 33 15 18 - - -
25/03:00am - - - - - W 26 32 14 17 - - -
25/02:30am - - - - - W 28 35 15 19 - - -
25/02:00am - - - - - W 35 41 19 22 - - -
25/01:30am - - - - - W 32 41 17 22 - - -
25/01:00am - - - - - W 32 39 17 21 - - -
25/12:30am - - - - - W 30 39 16 21 - - -
25/12:00am - - - - - W 43 54 23 29 - - -
 
Date/Time
EST
Temp
°C
App
Temp
°C
Dew
Point
°C
Rel
Hum
%
Delta-T
°C
Wind Press
QNH
hPa
Press
MSL
hPa
Rain since
9am
mm
Dir  Spd
km/h
Gust
km/h
Spd
kts
Gust
kts
24/11:30pm - - - - - WSW 37 46 20 25 - - -
24/11:00pm - - - - - W 30 35 16 19 - - -
24/10:30pm - - - - - W 28 39 15 21 - - -
24/10:00pm - - - - - WSW 35 46 19 25 - - -
24/09:47pm - - - - - WSW 39 48 21 26 - - -
24/09:30pm - - - - - W 41 48 22 26 - - -
24/09:00pm - - - - - W 41 52 22 28 - - -
24/08:30pm - - - - - W 35 43 19 23 - - -
24/08:00pm - - - - - W 37 46 20 25 - - -
24/07:30pm - - - - - WNW 37 44 20 24 - - -
24/07:00pm - - - - - W 39 54 21 29 - - -
24/06:30pm - - - - - W 37 46 20 25 - - -
24/06:00pm - - - - - W 41 48 22 26 - - -
24/05:30pm - - - - - W 48 59 26 32 - - -
24/05:00pm - - - - - W 44 50 24 27 - - -
24/04:30pm - - - - - W 41 50 22 27 - - -
24/04:00pm - - - - - W 41 46 22 25 - - -
24/03:43pm - - - - - W 43 57 23 31 - - -
24/03:30pm - - - - - WSW 57 83 31 45 - - -
24/03:26pm - - - - - WSW 57 83 31 45 - - -
24/03:22pm - - - - - W 50 83 27 45 - - -
24/03:21pm - - - - - W 48 83 26 45 - - -
24/03:00pm - - - - - W 46 59 25 32 - - -
24/02:30pm - - - - - W 43 50 23 27 - - -
24/02:00pm - - - - - WSW 43 57 23 31 - - -
24/01:53pm - - - - - WSW 56 69 30 37 - - -
24/01:45pm - - - - - WSW 69 85 37 46 - - -
24/01:38pm - - - - - WSW 61 85 33 46 - - -
24/01:35pm - - - - - W 56 80 30 43 - - -
24/01:30pm - - - - - W 50 65 27 35 - - -
24/01:00pm - - - - - W 39 48 21 26 - - -
24/12:30pm - - - - - W 41 50 22 27 - - -
24/12:00pm - - - - - W 37 46 20 25 - - -
24/11:30am - - - - - W 39 50 21 27 - - -
24/11:00am - - - - - WSW 46 65 25 35 - - -
24/10:58am - - - - - WSW 48 67 26 36 - - -
24/10:30am - - - - - W 44 54 24 29 - - -
24/10:00am - - - - - W 39 44 21 24 - - -
24/09:30am - - - - - W 41 50 22 27 - - -
24/09:00am - - - - - W 32 41 17 22 - - -
24/08:30am - - - - - WNW 35 43 19 23 - - -
24/08:00am - - - - - WNW 33 41 18 22 - - -
24/07:30am - - - - - WNW 35 44 19 24 - - -
24/07:00am - - - - - WNW 39 46 21 25 - - -
24/06:30am - - - - - NW 28 39 15 21 - - -
24/06:00am - - - - - NNW 28 35 15 19 - - -
24/05:30am - - - - - N 28 35 15 19 - - -
24/05:00am - - - - - NNW 24 30 13 16 - - -
24/04:30am - - - - - NW 20 32 11 17 - - -
24/04:00am - - - - - NNW 30 35 16 19 - - -
24/03:30am - - - - - N 32 35 17 19 - - -
24/03:00am - - - - - NNW 28 33 15 18 - - -
24/02:30am - - - - - NNW 28 32 15 17 - - -
24/02:00am - - - - - NNW 28 32 15 17 - - -
24/01:30am - - - - - NNW 26 30 14 16 - - -
24/01:00am - - - - - NW 33 41 18 22 - - -
24/12:30am - - - - - NW 33 41 18 22 - - -
24/12:00am - - - - - NW 26 32 14 17 - - -
 
Date/Time
EST
Temp
°C
App
Temp
°C
Dew
Point
°C
Rel
Hum
%
Delta-T
°C
Wind Press
QNH
hPa
Press
MSL
hPa
Rain since
9am
mm
Dir  Spd
km/h
Gust
km/h
Spd
kts
Gust
kts
23/11:30pm - - - - - NW 24 32 13 17 - - -
23/11:00pm - - - - - WNW 20 24 11 13 - - -
23/10:30pm - - - - - W 22 32 12 17 - - -
23/10:00pm - - - - - W 22 28 12 15 - - -
23/09:30pm - - - - - WNW 19 24 10 13 - - -
23/09:00pm - - - - - WNW 24 30 13 16 - - -
23/08:30pm - - - - - N 26 43 14 23 - - -
23/08:00pm - - - - - NNW 28 33 15 18 - - -
23/07:30pm - - - - - NNW 26 32 14 17 - - -
23/07:00pm - - - - - WNW 28 35 15 19 - - -
23/06:30pm - - - - - W 35 43 19 23 - - -

Latest Capital City Observations: Canberra | Sydney | Melbourne | Brisbane | Adelaide | Perth | Hobart | Darwin

Other Formats:

Comma delimited format used in spreadsheet applications
http://www.bom.gov.au/fwo/IDV60901/IDV60901.95872.axf

JavaScript Object Notation format (JSON) in row-major order
http://www.bom.gov.au/fwo/IDV60901/IDV60901.95872.json